Pocataligo, South Carolina
Current Conditions -  °F | °C
As of 10:56 PM on Sunday 21 Dec 2014 (Local Time) from KNBC Reporting Station
Overcast Overcast  
Wind Chill: 44°   Ceiling: 600
Heat Index: 48°   Visibility: 9mi
Dew Point: 46°   Wind: 8mph
Humidity: 93%   Direction: 350°N
Pressure: 30.11"   Gusts: NA
Location:  32.642°N, 80.8085°W
Report Text: KNBC 220356Z 35007KT 9SM OVC006 09/08 A3011 RMK AO2 RAE26 CIG 004V009 SLP196 P0002 T00890078
Loading
Personal Weather Stations






























Interactive Weather Map New forecast layout! Learn more

10-Day Weather Forecast

Advertisements
Track Severe Weather on mobile